Time;durP1;ratioP1;P1;durP2;ratioP2;P2;SDS_P1;SDS_P2;PMS_P1;PMS_P2;Temp;Humidity;BMP_temperature;BMP_pressure;BME280_temperature;BME280_humidity;BME280_pressure;Samples;Min_cycle;Max_cycle;Signal;HPM_P1;HPM_P2
2024/01/16 00:01:42;;;;;;;7.00;4.33;;;;;;;-1.69;72.04;94890.88;5031180;28;20220;-77
2024/01/16 00:04:07;;;;;;;10.43;5.67;;;;;;;-1.49;71.17;94895.63;5015286;28;20210;-77
2024/01/16 00:06:33;;;;;;;6.90;5.23;;;;;;;-1.68;71.68;94889.97;5008573;28;20183;-77
2024/01/16 00:08:58;;;;;;;9.83;4.60;;;;;;;-1.77;71.96;94901.50;5011593;28;20213;-77
2024/01/16 00:11:23;;;;;;;10.53;4.93;;;;;;;-1.75;72.08;94894.63;5016221;28;20196;-77
2024/01/16 00:13:49;;;;;;;5.90;4.33;;;;;;;-1.63;71.68;94890.53;5016815;28;20579;-77
2024/01/16 00:16:14;;;;;;;8.10;4.83;;;;;;;-1.72;71.92;94897.78;5031339;28;20194;-77
2024/01/16 00:18:39;;;;;;;7.23;4.80;;;;;;;-1.87;72.45;94890.22;5031468;28;20292;-77
2024/01/16 00:21:05;;;;;;;8.83;5.07;;;;;;;-1.73;72.19;94885.16;5030330;28;20672;-77
2024/01/16 00:23:33;;;;;;;10.33;4.80;;;;;;;-1.59;71.64;94900.44;5030708;28;20209;-77
2024/01/16 00:25:58;;;;;;;9.53;5.30;;;;;;;-1.63;71.42;94890.53;5012979;28;20251;-77
2024/01/16 00:28:24;;;;;;;5.70;4.50;;;;;;;-1.84;72.50;94897.69;5030678;28;20179;-77
2024/01/16 00:30:49;;;;;;;9.33;4.93;;;;;;;-1.59;72.00;94889.41;5015289;28;20190;-77
2024/01/16 00:33:14;;;;;;;6.27;4.50;;;;;;;-1.74;72.41;94894.53;5030697;28;20191;-77
2024/01/16 00:35:40;;;;;;;7.80;4.77;;;;;;;-1.67;72.33;94895.00;5030582;28;20183;-77
2024/01/16 00:38:05;;;;;;;7.27;4.37;;;;;;;-1.72;72.58;94890.16;5014314;28;20277;-77
2024/01/16 00:40:30;;;;;;;6.70;4.43;;;;;;;-1.68;72.04;94888.22;5014595;28;20200;-77
2024/01/16 00:42:56;;;;;;;8.27;4.77;;;;;;;-1.80;72.42;94884.69;5014512;28;20211;-77
2024/01/16 00:45:22;;;;;;;9.43;5.17;;;;;;;-1.66;72.45;94885.63;5030393;28;20185;-77
2024/01/16 00:47:47;;;;;;;10.27;5.20;;;;;;;-1.82;72.49;94894.16;5032585;28;20175;-77
2024/01/16 00:50:13;;;;;;;6.07;4.93;;;;;;;-1.53;71.73;94894.97;5043304;28;20203;-77
2024/01/16 00:52:38;;;;;;;9.37;5.73;;;;;;;-1.56;72.18;94894.34;5014440;28;20642;-77
2024/01/16 00:55:04;;;;;;;7.40;5.00;;;;;;;-1.74;72.52;94894.53;5030321;28;20203;-77
2024/01/16 00:57:29;;;;;;;7.07;4.97;;;;;;;-1.73;72.65;94888.53;5013600;28;20191;-77
2024/01/16 00:59:55;;;;;;;10.40;4.83;;;;;;;-1.63;72.31;94891.34;4996773;28;20259;-78
2024/01/16 01:02:20;;;;;;;10.33;5.13;;;;;;;-1.62;72.40;94887.06;5030542;28;20198;-78
2024/01/16 01:04:45;;;;;;;10.77;5.20;;;;;;;-1.64;72.62;94891.44;5030916;28;20183;-78
2024/01/16 01:07:14;;;;;;;9.83;5.50;;;;;;;-1.76;73.05;94898.91;5015002;28;20183;-78
2024/01/16 01:09:40;;;;;;;8.77;5.23;;;;;;;-1.57;72.48;94902.91;5029530;28;20665;-77
2024/01/16 01:12:05;;;;;;;11.17;5.27;;;;;;;-1.70;72.53;94900.25;5016521;28;20205;-77
2024/01/16 01:14:31;;;;;;;7.83;4.80;;;;;;;-1.67;72.57;94897.53;5029692;28;20187;-78
2024/01/16 01:16:56;;;;;;;8.43;5.20;;;;;;;-1.60;72.38;94895.44;5018048;28;20191;-78
2024/01/16 01:19:22;;;;;;;8.97;5.80;;;;;;;-1.70;73.14;94907.88;5029356;28;20201;-78
2024/01/16 01:21:47;;;;;;;8.70;5.20;;;;;;;-1.87;73.01;94906.31;5030161;28;20203;-78
2024/01/16 01:24:12;;;;;;;10.43;4.90;;;;;;;-1.76;72.73;94900.63;5030254;28;20216;-78
2024/01/16 01:26:38;;;;;;;8.00;6.00;;;;;;;-1.79;73.02;94909.22;5029883;28;20210;-77
2024/01/16 01:29:03;;;;;;;12.43;5.23;;;;;;;-1.55;72.35;94906.16;4997365;28;20228;-78
2024/01/16 01:31:28;;;;;;;12.20;5.13;;;;;;;-1.60;72.62;94903.06;5030088;28;20192;-78
2024/01/16 01:33:54;;;;;;;10.47;5.60;;;;;;;-1.59;72.63;94900.44;5013319;28;20246;-77
2024/01/16 01:36:19;;;;;;;10.17;5.20;;;;;;;-1.86;72.94;94894.41;5029744;28;20187;-78
2024/01/16 01:38:44;;;;;;;10.63;5.53;;;;;;;-1.47;72.25;94907.34;5032993;28;20222;-77
2024/01/16 01:41:11;;;;;;;9.23;5.30;;;;;;;-1.67;73.17;94907.72;5023525;28;20776;-77
2024/01/16 01:43:37;;;;;;;9.70;5.10;;;;;;;-1.71;73.33;94901.16;5029727;28;20257;-77
2024/01/16 01:46:09;;;;;;;11.63;6.13;;;;;;;-1.80;73.43;94910.13;5028227;28;20195;-77
2024/01/16 01:48:37;;;;;;;7.50;5.00;;;;;;;-1.66;73.17;94914.44;5029333;28;20210;-77
2024/01/16 01:51:02;;;;;;;6.93;5.30;;;;;;;-1.52;72.76;94922.06;5024394;28;20187;-76
2024/01/16 01:53:28;;;;;;;7.67;5.03;;;;;;;-1.49;72.56;94926.19;5029718;28;20233;-77
2024/01/16 01:55:55;;;;;;;10.30;5.40;;;;;;;-1.53;72.42;94927.25;5016064;28;20273;-77
2024/01/16 01:58:20;;;;;;;13.03;5.10;;;;;;;-1.57;72.74;94924.09;5025040;28;20182;-78
2024/01/16 02:00:46;;;;;;;9.10;5.40;;;;;;;-1.60;72.53;94926.78;5026578;28;20739;-78
2024/01/16 02:03:12;;;;;;;13.57;5.00;;;;;;;-1.43;71.79;94923.25;5020730;28;20191;-78
2024/01/16 02:05:38;;;;;;;9.47;4.70;;;;;;;-1.45;72.42;94923.34;5029676;28;20201;-78
2024/01/16 02:08:04;;;;;;;9.57;6.27;;;;;;;-1.56;72.26;94923.19;5022404;28;20186;-78
2024/01/16 02:10:29;;;;;;;12.23;6.03;;;;;;;-1.56;72.31;94922.38;5007756;28;20209;-78
2024/01/16 02:12:55;;;;;;;8.90;5.90;;;;;;;-1.51;72.50;94923.72;5016696;28;20214;-77
2024/01/16 02:15:20;;;;;;;9.37;5.60;;;;;;;-1.68;72.26;94916.25;5033811;28;20274;-77
2024/01/16 02:17:47;;;;;;;8.70;5.20;;;;;;;-1.71;72.24;94924.88;5017800;28;20202;-77
2024/01/16 02:20:12;;;;;;;10.90;5.40;;;;;;;-1.67;72.44;94923.00;5016841;28;20360;-77
2024/01/16 02:22:39;;;;;;;10.97;5.67;;;;;;;-1.77;72.47;94922.72;5018803;28;20675;-77
2024/01/16 02:25:05;;;;;;;10.83;4.80;;;;;;;-1.71;72.21;94924.06;5033966;28;20187;-77
2024/01/16 02:27:30;;;;;;;6.80;5.53;;;;;;;-1.72;72.41;94918.16;5036854;28;20214;-77
2024/01/16 02:29:55;;;;;;;10.77;5.70;;;;;;;-1.87;72.22;94915.66;5001403;28;20641;-77
2024/01/16 02:32:20;;;;;;;8.40;5.60;;;;;;;-1.68;72.12;94918.78;5033523;28;20281;-76
2024/01/16 02:34:46;;;;;;;8.60;5.30;;;;;;;-1.68;71.89;94916.25;5046824;28;20224;-77
2024/01/16 02:37:11;;;;;;;8.47;4.67;;;;;;;-1.81;72.65;94916.16;5018464;28;20568;-77
2024/01/16 02:39:36;;;;;;;10.87;5.30;;;;;;;-1.62;71.55;94915.06;5018258;28;20231;-77
2024/01/16 02:42:02;;;;;;;7.83;4.90;;;;;;;-1.85;71.72;94919.78;5032836;28;21135;-78
2024/01/16 02:44:27;;;;;;;11.03;4.97;;;;;;;-1.77;71.70;94934.59;5017620;28;20225;-77
2024/01/16 02:46:53;;;;;;;10.57;5.30;;;;;;;-1.74;71.86;94939.53;5016300;28;20242;-77
2024/01/16 02:49:18;;;;;;;5.97;4.70;;;;;;;-1.65;71.02;94933.09;5028404;28;20214;-77
2024/01/16 02:51:43;;;;;;;8.10;4.97;;;;;;;-1.71;71.44;94934.25;5032490;28;20274;-77
2024/01/16 02:54:09;;;;;;;11.97;5.70;;;;;;;-1.91;72.06;94935.41;5016858;28;20244;-76
2024/01/16 02:56:34;;;;;;;7.60;4.60;;;;;;;-1.83;71.80;94937.50;5022579;28;20721;-77
2024/01/16 02:59:00;;;;;;;10.43;4.67;;;;;;;-1.84;71.69;94935.88;5029517;28;20234;-77
2024/01/16 03:01:25;;;;;;;10.63;4.90;;;;;;;-1.72;71.57;94928.34;5017947;28;20215;-76
2024/01/16 03:03:50;;;;;;;9.30;4.87;;;;;;;-1.63;70.95;94933.81;4996971;28;20265;-77
2024/01/16 03:06:25;;;;;;;8.83;4.93;;;;;;;-1.79;71.56;94933.88;5017851;28;20266;-77
2024/01/16 03:08:51;;;;;;;10.70;4.47;;;;;;;-1.71;71.21;94936.78;5013444;28;20202;-77
2024/01/16 03:11:17;;;;;;;7.87;5.10;;;;;;;-1.79;71.21;94938.97;5017024;28;20179;-77
2024/01/16 03:13:43;;;;;;;7.90;4.77;;;;;;;-1.81;71.20;94933.16;5032833;28;20567;-77
2024/01/16 03:16:10;;;;;;;13.20;4.63;;;;;;;-1.86;71.33;94937.66;5017202;28;20658;-77
2024/01/16 03:18:35;;;;;;;8.40;4.27;;;;;;;-1.88;71.37;94945.38;5032292;28;20219;-77
2024/01/16 03:21:01;;;;;;;11.47;5.00;;;;;;;-1.83;71.35;94945.16;5031084;28;20268;-77
2024/01/16 03:23:26;;;;;;;9.50;4.60;;;;;;;-1.82;70.93;94947.59;5017598;28;20197;-77
2024/01/16 03:25:52;;;;;;;7.13;4.73;;;;;;;-1.98;71.35;94941.75;5016132;28;20199;-77
2024/01/16 03:28:17;;;;;;;6.87;5.03;;;;;;;-2.06;71.01;94944.72;5015511;28;20683;-77
2024/01/16 03:30:43;;;;;;;9.10;4.60;;;;;;;-2.16;71.29;94946.13;5028047;28;20183;-77
2024/01/16 03:33:08;;;;;;;9.13;4.40;;;;;;;-2.14;71.54;94949.41;5009994;28;20192;-76
2024/01/16 03:35:33;;;;;;;7.60;4.87;;;;;;;-2.20;71.15;94944.69;5013332;28;20654;-76
2024/01/16 03:37:59;;;;;;;8.07;4.80;;;;;;;-2.28;71.81;94947.66;4995911;28;20293;-77
2024/01/16 03:40:24;;;;;;;8.93;4.93;;;;;;;-2.24;71.51;94950.81;5030508;28;20257;-77
2024/01/16 03:42:49;;;;;;;12.47;4.87;;;;;;;-2.38;72.13;94945.72;5022523;28;20198;-77
2024/01/16 03:45:15;;;;;;;11.53;4.73;;;;;;;-2.26;71.56;94945.00;5016012;28;20660;-77
2024/01/16 03:47:40;;;;;;;7.23;4.60;;;;;;;-2.43;71.89;94935.78;5015486;28;20194;-77
2024/01/16 03:50:06;;;;;;;6.13;4.43;;;;;;;-2.42;72.10;94941.69;5031529;28;20226;-77
2024/01/16 03:52:31;;;;;;;6.27;4.63;;;;;;;-2.45;72.32;94934.22;5031897;28;20220;-77
2024/01/16 03:54:56;;;;;;;6.80;4.23;;;;;;;-2.61;72.70;94924.88;4996681;28;20587;-77
2024/01/16 03:57:22;;;;;;;8.63;4.63;;;;;;;-2.45;72.34;94924.88;5015783;28;20200;-77
2024/01/16 03:59:47;;;;;;;8.63;3.80;;;;;;;-2.42;71.90;94928.97;5017509;28;20258;-77
2024/01/16 04:02:13;;;;;;;12.30;4.53;;;;;;;-2.52;71.96;94927.84;5034213;28;20218;-77
2024/01/16 04:04:38;;;;;;;9.63;4.67;;;;;;;-2.57;71.74;94917.91;5032227;28;20195;-77
2024/01/16 04:07:03;;;;;;;5.90;3.90;;;;;;;-2.46;71.29;94927.50;5033137;28;20278;-77
2024/01/16 04:09:29;;;;;;;7.13;4.33;;;;;;;-2.49;71.22;94920.84;5030625;28;20209;-77
2024/01/16 04:11:54;;;;;;;6.50;3.87;;;;;;;-2.59;71.80;94923.06;5042895;28;20195;-77
2024/01/16 04:14:20;;;;;;;7.27;4.77;;;;;;;-2.64;71.77;94919.16;5031359;28;20218;-77
2024/01/16 04:16:45;;;;;;;9.90;4.63;;;;;;;-2.65;71.78;94917.50;5016851;28;20191;-77
2024/01/16 04:19:11;;;;;;;8.13;4.27;;;;;;;-2.64;71.98;94916.63;5031474;28;20203;-77
2024/01/16 04:21:36;;;;;;;7.50;4.57;;;;;;;-2.72;72.35;94918.75;5030908;28;20294;-77
2024/01/16 04:24:02;;;;;;;11.80;6.33;;;;;;;-2.73;72.03;94915.41;5015277;28;20662;-77
2024/01/16 04:26:27;;;;;;;7.10;4.77;;;;;;;-2.75;72.50;94917.19;5027467;28;20608;-76
2024/01/16 04:28:52;;;;;;;5.77;3.97;;;;;;;-2.79;72.34;94915.72;5011603;28;20222;-76
2024/01/16 04:31:19;;;;;;;8.40;5.23;;;;;;;-2.79;72.65;94905.56;5013635;28;20179;-77
2024/01/16 04:33:44;;;;;;;11.40;4.93;;;;;;;-2.77;72.41;94908.00;5026964;28;20187;-76
2024/01/16 04:36:10;;;;;;;10.63;4.57;;;;;;;-2.78;72.39;94902.09;5033401;28;20195;-77
2024/01/16 04:38:35;;;;;;;9.60;5.37;;;;;;;-2.86;72.51;94904.25;5027155;28;20223;-76
2024/01/16 04:41:02;;;;;;;9.63;5.17;;;;;;;-2.87;72.74;94910.22;5012977;28;20218;-76
2024/01/16 04:43:27;;;;;;;9.63;4.60;;;;;;;-2.88;72.47;94906.88;5013791;28;20280;-77
2024/01/16 04:45:53;;;;;;;6.23;4.20;;;;;;;-2.88;72.85;94900.97;5029104;28;20194;-76
2024/01/16 04:48:18;;;;;;;6.03;4.33;;;;;;;-2.93;72.79;94905.47;5030312;28;20215;-77
2024/01/16 04:50:45;;;;;;;7.93;4.43;;;;;;;-2.97;72.56;94906.56;5029699;28;20658;-77
2024/01/16 04:53:10;;;;;;;8.37;3.90;;;;;;;-2.93;72.08;94897.84;5013374;28;20325;-77
2024/01/16 04:55:36;;;;;;;5.77;4.00;;;;;;;-2.99;72.12;94895.66;5030440;28;20653;-77
2024/01/16 04:58:01;;;;;;;12.23;4.87;;;;;;;-3.15;71.95;94898.19;5013882;28;20207;-77
2024/01/16 05:00:27;;;;;;;8.13;4.90;;;;;;;-3.18;72.94;94906.78;5012638;28;20214;-77
2024/01/16 05:02:52;;;;;;;7.70;3.80;;;;;;;-3.21;72.69;94895.97;5012081;28;20191;-77
2024/01/16 05:05:17;;;;;;;9.47;4.73;;;;;;;-3.14;72.20;94905.72;5021305;28;20567;-77
2024/01/16 05:07:43;;;;;;;8.30;4.43;;;;;;;-3.18;72.37;94901.72;5022975;28;20274;-77
2024/01/16 05:10:15;;;;;;;8.13;4.97;;;;;;;-3.22;72.21;94902.75;5042471;28;20775;-77
2024/01/16 05:12:41;;;;;;;7.20;4.13;;;;;;;-3.29;72.20;94898.91;5032955;28;20275;-77
2024/01/16 05:15:07;;;;;;;7.00;4.23;;;;;;;-3.38;72.98;94896.84;5003128;28;20214;-77
2024/01/16 05:17:32;;;;;;;6.97;4.43;;;;;;;-3.36;73.22;94899.28;5012161;28;20199;-77
2024/01/16 05:19:58;;;;;;;6.47;3.90;;;;;;;-3.39;73.24;94890.13;5012203;28;20378;-77
2024/01/16 05:22:25;;;;;;;6.57;4.07;;;;;;;-3.39;73.26;94886.78;5021622;28;20196;-77
2024/01/16 05:24:50;;;;;;;9.03;5.37;;;;;;;-3.30;73.11;94883.75;5026473;28;20194;-77
2024/01/16 05:27:15;;;;;;;6.57;3.67;;;;;;;-3.37;73.81;94874.81;5030530;28;20203;-77
2024/01/16 05:29:41;;;;;;;9.23;4.07;;;;;;;-3.32;73.21;94886.38;5013703;28;20238;-77
2024/01/16 05:32:06;;;;;;;6.90;4.67;;;;;;;-3.31;73.54;94874.50;5012961;28;20184;-77
2024/01/16 05:34:32;;;;;;;8.23;4.23;;;;;;;-3.34;73.08;94872.94;5015856;28;20190;-77
2024/01/16 05:36:57;;;;;;;8.40;4.77;;;;;;;-3.36;73.69;94872.19;5014021;28;20281;-77
2024/01/16 05:39:23;;;;;;;8.67;4.90;;;;;;;-3.37;73.75;94872.28;5030811;28;20221;-77
2024/01/16 05:41:48;;;;;;;7.10;4.53;;;;;;;-3.37;72.91;94867.19;5014502;28;20213;-77
2024/01/16 05:44:13;;;;;;;10.00;4.83;;;;;;;-3.44;73.23;94856.56;5010160;28;20191;-77
2024/01/16 05:46:39;;;;;;;10.23;4.10;;;;;;;-3.35;72.91;94860.34;5005745;28;20294;-76
2024/01/16 05:49:04;;;;;;;7.93;4.40;;;;;;;-3.39;73.48;94861.38;4992656;28;20261;-77
2024/01/16 05:51:29;;;;;;;8.93;4.93;;;;;;;-3.35;73.16;94861.16;5017871;28;20185;-77
2024/01/16 05:53:55;;;;;;;7.93;4.53;;;;;;;-3.27;73.18;94853.97;5004406;28;20198;-77
2024/01/16 05:56:21;;;;;;;8.03;4.23;;;;;;;-3.27;73.49;94856.50;5004891;28;20183;-77
2024/01/16 05:58:46;;;;;;;9.10;4.37;;;;;;;-3.28;73.44;94859.91;5024809;28;20281;-77
2024/01/16 06:01:14;;;;;;;5.23;3.77;;;;;;;-3.30;73.12;94859.19;5028084;28;20234;-78
2024/01/16 06:03:40;;;;;;;6.40;3.97;;;;;;;-3.22;72.90;94856.22;5028475;28;20195;-77
2024/01/16 06:06:07;;;;;;;7.37;4.37;;;;;;;-3.46;73.97;94851.53;5016562;28;20200;-77
2024/01/16 06:08:33;;;;;;;8.33;3.80;;;;;;;-3.26;73.11;94850.50;5011492;28;20194;-76
2024/01/16 06:10:58;;;;;;;6.63;4.17;;;;;;;-3.18;71.99;94850.94;5003042;28;20183;-76
2024/01/16 06:13:23;;;;;;;11.10;4.80;;;;;;;-3.16;72.35;94858.47;5019824;28;20675;-77
2024/01/16 06:15:48;;;;;;;5.57;3.97;;;;;;;-3.19;72.17;94846.72;5028828;28;20198;-77
2024/01/16 06:18:14;;;;;;;6.27;4.07;;;;;;;-3.17;72.27;94860.19;5014103;28;20673;-77
2024/01/16 06:20:39;;;;;;;15.57;5.90;;;;;;;-3.38;73.61;94851.13;5027812;28;20207;-77
2024/01/16 06:23:05;;;;;;;8.90;4.83;;;;;;;-3.14;72.10;94852.38;5021243;28;20197;-77
2024/01/16 06:25:30;;;;;;;8.00;3.83;;;;;;;-3.21;72.43;94858.69;5029565;28;20242;-78
2024/01/16 06:27:55;;;;;;;5.57;3.67;;;;;;;-3.21;73.06;94858.69;5017508;28;20194;-77
2024/01/16 06:30:22;;;;;;;6.00;3.90;;;;;;;-3.23;73.21;94857.13;5027524;28;20211;-77
2024/01/16 06:32:48;;;;;;;8.00;4.10;;;;;;;-3.24;72.83;94865.66;5011911;28;20564;-77
2024/01/16 06:35:14;;;;;;;8.00;3.97;;;;;;;-3.25;73.53;94871.66;5037142;28;20191;-77
2024/01/16 06:37:39;;;;;;;6.93;4.07;;;;;;;-3.28;73.81;94871.78;5039849;28;20188;-77
2024/01/16 06:40:05;;;;;;;7.30;4.03;;;;;;;-3.09;72.86;94862.31;4996405;28;20625;-77
2024/01/16 06:42:31;;;;;;;5.30;3.47;;;;;;;-3.20;72.69;94873.03;5027956;28;20191;-76
2024/01/16 06:44:56;;;;;;;8.53;5.10;;;;;;;-3.21;72.46;94883.25;5011801;28;20623;-77
2024/01/16 06:47:23;;;;;;;8.80;4.53;;;;;;;-3.15;72.57;94875.31;5012909;28;20190;-77
2024/01/16 06:49:49;;;;;;;12.13;4.20;;;;;;;-3.19;72.86;94879.72;5012219;28;20577;-77
2024/01/16 06:52:14;;;;;;;7.43;3.90;;;;;;;-3.16;72.45;94876.22;5029736;28;20190;-77
2024/01/16 06:54:39;;;;;;;6.73;3.90;;;;;;;-3.18;72.48;94878.84;5030532;28;20194;-77
2024/01/16 06:57:05;;;;;;;6.93;3.67;;;;;;;-3.35;73.48;94876.38;5021689;28;20198;-77
2024/01/16 06:59:30;;;;;;;5.63;3.73;;;;;;;-3.32;72.93;94878.75;5032280;28;20207;-77
2024/01/16 07:01:55;;;;;;;8.93;4.37;;;;;;;-3.34;73.46;94867.88;5015923;28;20636;-78
2024/01/16 07:04:21;;;;;;;7.87;3.87;;;;;;;-3.28;72.91;94872.59;5015566;28;20203;-77
2024/01/16 07:06:47;;;;;;;5.90;3.57;;;;;;;-3.20;72.42;94873.03;5032182;28;20190;-78
2024/01/16 07:09:12;;;;;;;9.17;4.20;;;;;;;-3.31;72.91;94872.78;5032589;28;20253;-77
2024/01/16 07:11:41;;;;;;;8.03;4.43;;;;;;;-3.33;72.75;94869.50;5032015;28;20183;-79
2024/01/16 07:14:07;;;;;;;11.60;4.17;;;;;;;-3.35;72.47;94871.31;5016135;28;20184;-79
2024/01/16 07:16:33;;;;;;;7.90;4.57;;;;;;;-3.54;73.55;94866.34;5016428;28;20195;-79
2024/01/16 07:18:58;;;;;;;12.07;4.90;;;;;;;-3.46;73.07;94865.94;5016916;28;20207;-79
2024/01/16 07:21:24;;;;;;;8.60;4.10;;;;;;;-3.50;73.75;94870.38;5033577;28;20669;-79
2024/01/16 07:23:49;;;;;;;9.23;4.47;;;;;;;-3.58;73.38;94866.59;5011086;28;20576;-79
2024/01/16 07:26:16;;;;;;;9.37;3.97;;;;;;;-3.52;73.27;94863.75;5034126;28;20190;-78
2024/01/16 07:28:41;;;;;;;5.87;3.60;;;;;;;-3.52;72.49;94858.69;5035287;28;20214;-79
2024/01/16 07:31:09;;;;;;;7.30;4.13;;;;;;;-3.45;72.85;94855.72;4999199;28;20184;-79
2024/01/16 07:33:34;;;;;;;7.67;4.40;;;;;;;-3.51;72.63;94856.06;5016024;28;20188;-77
2024/01/16 07:36:00;;;;;;;7.47;3.80;;;;;;;-3.42;72.51;94855.56;5033574;28;20193;-79
2024/01/16 07:38:25;;;;;;;9.37;3.67;;;;;;;-3.39;72.06;94857.13;5017646;28;20203;-78
2024/01/16 07:40:50;;;;;;;5.27;3.60;;;;;;;-3.37;72.11;94857.84;5014427;28;20226;-78
2024/01/16 07:43:16;;;;;;;7.67;4.40;;;;;;;-3.34;72.29;94855.19;5020061;28;20186;-79
2024/01/16 07:45:41;;;;;;;6.03;3.73;;;;;;;-3.33;72.27;94856.81;5030806;28;20218;-79
2024/01/16 07:48:08;;;;;;;7.17;3.83;;;;;;;-3.34;71.96;94856.91;5025261;28;20704;-79
2024/01/16 07:50:33;;;;;;;4.37;3.07;;;;;;;-3.32;71.66;94855.09;5011675;28;20206;-79
2024/01/16 07:52:58;;;;;;;6.20;3.30;;;;;;;-3.37;71.80;94857.03;5029946;28;20183;-79
2024/01/16 07:55:24;;;;;;;5.57;3.37;;;;;;;-3.13;70.98;94860.81;5032321;28;20665;-79
2024/01/16 07:57:49;;;;;;;5.90;4.10;;;;;;;-3.23;70.83;94863.03;5034268;28;20560;-79
2024/01/16 08:00:15;;;;;;;6.23;3.53;;;;;;;-3.12;70.60;94857.38;5031738;28;20551;-79
2024/01/16 08:02:43;;;;;;;7.73;3.73;;;;;;;-3.32;71.02;94865.25;5000258;28;20198;-79
2024/01/16 08:05:10;;;;;;;5.70;4.00;;;;;;;-3.26;70.77;94867.47;5013584;28;20286;-78
2024/01/16 08:07:35;;;;;;;17.60;7.93;;;;;;;-3.27;71.11;94864.13;5037751;28;20206;-79
2024/01/16 08:10:01;;;;;;;22.40;9.40;;;;;;;-3.22;70.62;94862.13;4999215;28;20215;-79
2024/01/16 08:12:26;;;;;;;15.60;7.10;;;;;;;-3.06;70.50;94859.59;5042123;28;20187;-79
2024/01/16 08:14:52;;;;;;;13.63;6.03;;;;;;;-3.00;70.11;94866.91;5024664;28;20572;-83
2024/01/16 08:17:17;;;;;;;13.73;6.87;;;;;;;-2.85;69.45;94872.84;5016851;28;20176;-79
2024/01/16 08:19:43;;;;;;;10.43;5.73;;;;;;;-3.04;70.13;94874.75;5028332;28;20227;-79
2024/01/16 08:22:08;;;;;;;9.07;4.07;;;;;;;-3.11;70.29;94873.44;5020487;28;20278;-79
2024/01/16 08:24:33;;;;;;;6.63;4.03;;;;;;;-3.05;70.19;94889.16;5034435;28;20193;-79
2024/01/16 08:26:59;;;;;;;7.03;4.17;;;;;;;-3.09;70.04;94891.94;5019142;28;20194;-79
2024/01/16 08:29:24;;;;;;;7.53;3.70;;;;;;;-2.93;70.18;94893.59;5030770;28;20617;-79
2024/01/16 08:31:52;;;;;;;7.27;3.70;;;;;;;-2.79;69.88;94890.31;5018836;28;20181;-80
2024/01/16 08:34:18;;;;;;;5.10;3.37;;;;;;;-2.75;69.54;94888.41;5037637;28;20190;-80
2024/01/16 08:36:43;;;;;;;7.27;4.43;;;;;;;-2.54;69.66;94894.06;5034622;28;20188;-80
2024/01/16 08:39:10;;;;;;;20.60;10.30;;;;;;;-2.52;68.97;94893.06;4998623;28;20297;-79
2024/01/16 08:41:35;;;;;;;26.40;11.13;;;;;;;-2.69;69.69;94891.44;5027197;28;20199;-78
2024/01/16 08:44:00;;;;;;;11.90;6.00;;;;;;;-2.55;68.87;94889.88;4996805;28;20209;-78
2024/01/16 08:46:26;;;;;;;8.17;4.23;;;;;;;-2.62;69.34;94884.31;5013803;28;20191;-78
2024/01/16 08:48:51;;;;;;;5.43;3.33;;;;;;;-2.44;68.66;94882.47;5017548;28;20221;-79
2024/01/16 08:51:16;;;;;;;7.47;3.60;;;;;;;-2.28;67.97;94880.72;5032640;28;20179;-79
2024/01/16 08:53:42;;;;;;;4.30;3.20;;;;;;;-2.30;67.92;94883.34;5031651;28;20183;-79
2024/01/16 08:56:08;;;;;;;8.43;3.80;;;;;;;-2.01;67.33;94880.84;5030452;28;20657;-79
2024/01/16 08:58:35;;;;;;;7.33;3.70;;;;;;;-1.97;66.99;94884.84;5020044;28;20270;-79
2024/01/16 09:01:03;;;;;;;6.37;3.50;;;;;;;-2.06;66.58;94896.38;4997983;28;20647;-78
2024/01/16 09:03:28;;;;;;;9.10;4.40;;;;;;;-1.82;66.16;94899.25;5022452;28;20669;-78
2024/01/16 09:05:54;;;;;;;8.73;3.37;;;;;;;-1.69;66.14;94899.31;4999825;28;20181;-79
2024/01/16 09:08:19;;;;;;;7.93;3.97;;;;;;;-1.78;65.81;94895.59;5022621;28;20182;-79
2024/01/16 09:10:44;;;;;;;4.80;3.60;;;;;;;-1.76;65.73;94900.63;5013084;28;20863;-79
2024/01/16 09:13:10;;;;;;;7.57;3.57;;;;;;;-1.66;65.50;94894.06;5032667;28;20202;-79
2024/01/16 09:15:35;;;;;;;18.17;7.83;;;;;;;-1.29;64.85;94896.97;5038312;28;20253;-79
2024/01/16 09:18:01;;;;;;;9.43;4.83;;;;;;;-1.26;64.78;94904.44;5011878;28;20193;-80
2024/01/16 09:20:26;;;;;;;8.37;3.73;;;;;;;-1.64;65.28;94906.72;5037356;28;20214;-80
2024/01/16 09:22:52;;;;;;;7.17;3.43;;;;;;;-1.41;64.98;94913.81;4996168;28;20677;-80
2024/01/16 09:25:17;;;;;;;5.80;3.40;;;;;;;-1.14;63.91;94911.34;5013364;28;20252;-79
2024/01/16 09:27:42;;;;;;;6.63;4.10;;;;;;;-1.10;63.91;94907.69;5020855;28;20187;-80
2024/01/16 09:30:08;;;;;;;7.47;3.40;;;;;;;-1.29;64.14;94904.63;5029892;28;20212;-80
2024/01/16 09:32:35;;;;;;;6.50;3.93;;;;;;;-0.89;63.63;94906.38;5029783;28;20557;-82
2024/01/16 09:35:03;;;;;;;8.13;3.00;;;;;;;-0.85;62.48;94907.03;4995703;28;20198;-82
2024/01/16 09:37:28;;;;;;;6.23;3.07;;;;;;;-0.74;62.93;94904.63;5008732;28;20667;-79
2024/01/16 09:39:54;;;;;;;3.70;3.10;;;;;;;-0.69;62.63;94912.00;5012222;28;20224;-80
2024/01/16 09:42:19;;;;;;;9.07;2.73;;;;;;;-0.67;62.30;94912.72;4994410;28;20302;-79
2024/01/16 09:44:45;;;;;;;4.50;2.70;;;;;;;-0.64;62.13;94913.34;5032215;28;20502;-78
2024/01/16 09:47:11;;;;;;;8.30;3.67;;;;;;;-0.44;62.29;94906.16;5028737;28;20653;-80
2024/01/16 09:49:37;;;;;;;5.23;3.03;;;;;;;-0.55;61.85;94895.81;5026154;28;20206;-80
2024/01/16 09:52:03;;;;;;;6.77;3.03;;;;;;;-0.25;61.17;94891.34;5010702;28;20649;-79
2024/01/16 09:54:28;;;;;;;4.53;2.93;;;;;;;0.07;60.22;94891.78;5010405;28;20216;-80
2024/01/16 09:56:58;;;;;;;10.73;3.83;;;;;;;-0.10;60.17;94904.81;4994693;28;20193;-79
2024/01/16 09:59:24;;;;;;;4.93;2.57;;;;;;;-0.01;60.13;94899.13;5008940;28;20219;-81
2024/01/16 10:01:52;;;;;;;4.77;2.97;;;;;;;-0.17;59.74;94899.31;5011006;28;20776;-81
2024/01/16 10:04:17;;;;;;;5.17;2.43;;;;;;;0.28;59.79;94900.59;5001044;28;20288;-78
2024/01/16 10:06:46;;;;;;;5.80;2.70;;;;;;;0.36;58.43;94896.75;5036141;28;20653;-79
2024/01/16 10:09:12;;;;;;;4.73;2.63;;;;;;;0.68;57.85;94897.94;5000730;28;20313;-79
2024/01/16 10:11:38;;;;;;;5.40;3.30;;;;;;;0.67;58.24;94895.50;5027171;28;20191;-79
2024/01/16 10:14:03;;;;;;;5.90;3.17;;;;;;;1.01;57.79;94886.34;5004429;28;20198;-79
2024/01/16 10:17:05;;;;;;;6.60;3.03;;;;;;;1.33;56.36;94881.56;5011529;28;20241;-79
2024/01/16 10:19:31;;;;;;;6.90;2.90;;;;;;;1.20;55.27;94868.78;5010331;28;20206;-79
2024/01/16 10:22:08;;;;;;;16.03;4.90;;;;;;;1.75;54.22;94864.03;5014694;28;20407;-78
2024/01/16 10:24:35;;;;;;;14.97;4.43;;;;;;;1.40;53.84;94875.88;5013218;28;20191;-79
2024/01/16 10:27:03;;;;;;;11.67;3.97;;;;;;;1.45;54.35;94874.75;4993517;28;20201;-79
2024/01/16 10:29:29;;;;;;;4.77;2.23;;;;;;;0.88;54.83;94868.44;5018001;28;20225;-79
2024/01/16 10:31:55;;;;;;;5.07;2.13;;;;;;;0.96;54.78;94865.38;4998383;28;20205;-79
2024/01/16 10:34:24;;;;;;;4.93;2.40;;;;;;;0.90;54.90;94855.59;5015811;28;20274;-78
2024/01/16 10:36:53;;;;;;;10.90;3.10;;;;;;;0.92;54.47;94858.84;4999101;28;20221;-79
2024/01/16 10:39:18;;;;;;;13.53;4.13;;;;;;;0.70;54.38;94860.31;4997375;28;20732;-81
2024/01/16 10:41:57;;;;;;;5.13;3.03;;;;;;;0.93;53.93;94860.47;5013100;28;20294;-77
2024/01/16 10:44:22;;;;;;;6.97;2.87;;;;;;;1.39;53.54;94864.00;5012620;28;20190;-77
2024/01/16 10:46:47;;;;;;;6.27;3.83;;;;;;;1.38;53.18;94872.59;5043616;28;20198;-78
2024/01/16 10:49:13;;;;;;;7.20;3.47;;;;;;;1.03;53.88;94866.59;4996543;28;20211;-80
2024/01/16 10:51:39;;;;;;;5.37;3.13;;;;;;;1.27;53.35;94866.63;5031182;28;20194;-78
2024/01/16 10:54:10;;;;;;;4.43;2.70;;;;;;;1.11;53.19;94854.09;5013453;28;20191;-78
2024/01/16 10:56:36;;;;;;;2.57;2.10;;;;;;;0.79;53.21;94843.53;5013129;28;20183;-78
2024/01/16 10:59:12;;;;;;;5.20;2.23;;;;;;;0.90;53.35;94840.25;4999263;28;20229;-79
2024/01/16 11:01:38;;;;;;;6.27;3.63;;;;;;;0.90;52.73;94847.94;5031772;28;20205;-78
2024/01/16 11:04:04;;;;;;;4.77;2.30;;;;;;;0.56;53.70;94861.25;5030225;28;20198;-78
2024/01/16 11:06:30;;;;;;;8.67;3.70;;;;;;;0.67;53.04;94852.88;5027706;28;20693;-78
2024/01/16 11:08:56;;;;;;;6.23;3.90;;;;;;;0.38;55.05;94856.59;5013124;28;20257;-78
2024/01/16 11:11:21;;;;;;;4.97;3.30;;;;;;;0.32;54.59;94847.59;5030368;28;20196;-78
2024/01/16 11:13:51;;;;;;;6.33;3.17;;;;;;;0.33;54.51;94845.84;5030396;28;20282;-78
2024/01/16 11:16:17;;;;;;;5.80;4.30;;;;;;;0.66;53.67;94835.91;5030307;28;20195;-78
2024/01/16 11:18:42;;;;;;;4.43;3.27;;;;;;;0.65;52.86;94841.13;5030852;28;20680;-78
2024/01/16 11:21:13;;;;;;;6.53;2.83;;;;;;;0.65;53.28;94838.56;5029611;28;20211;-77
2024/01/16 11:23:38;;;;;;;6.80;2.20;;;;;;;0.68;52.89;94834.03;5022238;28;20733;-78
2024/01/16 11:26:32;;;;;;;4.10;1.97;;;;;;;0.99;51.80;94826.84;4997679;28;20194;-78